createdAt,value
2019-01-30T00:42:15.971Z,16.60
2019-01-30T00:44:49.637Z,17.15
2019-01-30T00:47:22.971Z,16.77
2019-01-30T00:49:58.328Z,16.27
2019-01-30T00:52:31.114Z,17.62
2019-01-30T00:55:04.197Z,15.35
2019-01-30T00:57:37.204Z,16.62
2019-01-30T01:00:14.503Z,16.20
2019-01-30T01:02:50.161Z,16.30
2019-01-30T01:05:24.153Z,16.23
2019-01-30T01:08:00.990Z,15.63
2019-01-30T01:10:36.864Z,16.15
2019-01-30T01:13:09.861Z,16.37
2019-01-30T01:15:44.273Z,15.50
2019-01-30T01:18:17.481Z,14.40
2019-01-30T01:20:53.204Z,16.23
2019-01-30T01:23:31.428Z,14.68
2019-01-30T01:26:04.445Z,16.02
2019-01-30T01:28:40.753Z,16.70
2019-01-30T01:31:16.146Z,13.98
2019-01-30T01:33:49.633Z,14.03
2019-01-30T01:36:23.383Z,14.75
2019-01-30T01:38:56.748Z,13.65
2019-01-30T01:41:29.912Z,14.58
2019-01-30T01:44:03.277Z,13.38
2019-01-30T01:46:36.888Z,12.13
2019-01-30T01:49:12.391Z,12.40
2019-01-30T01:51:47.070Z,12.55
2019-01-30T01:54:20.291Z,11.73
2019-01-30T01:56:55.006Z,13.30
2019-01-30T01:59:29.230Z,11.57
2019-01-30T02:02:04.663Z,13.53
2019-01-30T02:04:40.481Z,11.65
2019-01-30T02:07:14.189Z,11.73
2019-01-30T02:09:47.707Z,13.03
2019-01-30T02:12:21.124Z,12.75
2019-01-30T02:14:56.505Z,12.23
2019-01-30T02:17:29.565Z,12.68
2019-01-30T02:20:06.335Z,11.25
2019-01-30T02:22:41.332Z,13.00
2019-01-30T02:25:17.740Z,11.70
2019-01-30T02:27:50.726Z,12.10
2019-01-30T02:30:25.381Z,11.53
2019-01-30T02:33:00.770Z,12.00
2019-01-30T02:35:35.711Z,11.80
2019-01-30T02:38:09.270Z,11.78
2019-01-30T02:40:42.753Z,13.00
2019-01-30T02:43:16.445Z,12.15
2019-01-30T02:45:49.447Z,12.60
2019-01-30T02:48:22.884Z,13.78
2019-01-30T02:50:55.926Z,12.88
2019-01-30T02:53:29.199Z,10.55
2019-01-30T02:56:02.068Z,11.95
2019-01-30T02:58:35.664Z,12.28
2019-01-30T03:01:08.784Z,11.43
2019-01-30T03:03:42.150Z,11.83
2019-01-30T03:06:15.749Z,10.65
2019-01-30T03:08:48.735Z,12.07
2019-01-30T03:11:22.180Z,9.58
2019-01-30T03:13:54.758Z,10.43
2019-01-30T03:16:27.926Z,9.18
2019-01-30T03:19:01.647Z,11.88
2019-01-30T03:21:35.048Z,9.28
2019-01-30T03:24:08.951Z,9.93
2019-01-30T03:26:41.645Z,9.15
2019-01-30T03:29:14.976Z,10.93
2019-01-30T03:31:49.592Z,9.58
2019-01-30T03:34:22.533Z,9.15
2019-01-30T03:36:55.593Z,8.60
2019-01-30T03:39:28.953Z,8.58
2019-01-30T03:42:02.045Z,10.28
2019-01-30T03:44:35.886Z,8.05
2019-01-30T03:47:10.039Z,8.90
2019-01-30T03:49:43.447Z,10.05
2019-01-30T03:52:16.433Z,8.53
2019-01-30T03:54:49.917Z,9.15
2019-01-30T03:57:23.441Z,9.55
2019-01-30T03:59:56.815Z,8.38
2019-01-30T04:02:30.641Z,8.65
2019-01-30T04:05:04.273Z,9.35
2019-01-30T04:07:37.802Z,8.60
2019-01-30T04:10:13.246Z,8.78
2019-01-30T04:12:46.746Z,10.40
2019-01-30T04:15:21.103Z,9.53
2019-01-30T04:17:54.642Z,9.25
2019-01-30T04:20:28.386Z,8.40
2019-01-30T04:23:02.176Z,9.48
2019-01-30T04:25:36.294Z,9.35
2019-01-30T04:28:10.073Z,9.70
2019-01-30T04:30:42.981Z,9.23
2019-01-30T04:33:17.195Z,9.25
2019-01-30T04:35:49.952Z,8.75
2019-01-30T04:38:23.609Z,9.45
2019-01-30T04:40:56.622Z,10.13
2019-01-30T04:43:30.106Z,9.13
2019-01-30T04:46:05.030Z,9.15
2019-01-30T04:48:39.537Z,9.28
2019-01-30T04:51:12.944Z,9.58
2019-01-30T04:53:48.196Z,8.60
2019-01-30T04:56:21.481Z,9.65
2019-01-30T04:58:55.360Z,9.55
2019-01-30T05:01:27.659Z,8.33
2019-01-30T05:04:02.799Z,8.40
2019-01-30T05:06:36.115Z,8.33
2019-01-30T05:09:10.745Z,9.60
2019-01-30T05:11:43.405Z,8.23
2019-01-30T05:14:18.419Z,7.30
2019-01-30T05:16:51.822Z,7.20
2019-01-30T05:19:25.126Z,9.15
2019-01-30T05:22:00.160Z,8.43
2019-01-30T05:24:34.234Z,7.37
2019-01-30T05:27:08.183Z,7.70
2019-01-30T05:29:41.995Z,7.65
2019-01-30T05:32:15.410Z,7.20
2019-01-30T05:34:48.409Z,8.05
2019-01-30T05:37:21.513Z,8.18
2019-01-30T05:39:54.858Z,6.95
2019-01-30T05:42:27.509Z,8.00
2019-01-30T05:45:00.519Z,7.70
2019-01-30T05:47:34.231Z,6.67
2019-01-30T05:50:07.528Z,7.87
2019-01-30T05:52:40.946Z,6.40
2019-01-30T05:55:14.725Z,6.50
2019-01-30T05:57:48.235Z,7.47
2019-01-30T06:00:25.612Z,8.03
2019-01-30T06:02:58.226Z,8.23
2019-01-30T06:05:31.731Z,7.65
2019-01-30T06:08:04.910Z,6.78
2019-01-30T06:10:38.015Z,8.78
2019-01-30T06:13:14.368Z,8.38
2019-01-30T06:15:50.136Z,7.25
2019-01-30T06:18:23.981Z,7.30
2019-01-30T06:20:59.916Z,6.65
2019-01-30T06:23:32.444Z,7.40
2019-01-30T06:26:05.143Z,6.17
2019-01-30T06:28:38.330Z,7.00
2019-01-30T06:31:13.962Z,6.55
2019-01-30T06:33:47.592Z,8.60
2019-01-30T06:36:20.567Z,7.65
2019-01-30T06:38:53.222Z,7.03
2019-01-30T06:41:26.584Z,6.72
2019-01-30T06:43:59.620Z,6.72
2019-01-30T06:46:33.592Z,7.33
2019-01-30T06:49:07.383Z,6.85
2019-01-30T06:51:40.556Z,7.08
2019-01-30T06:54:14.099Z,6.67
2019-01-30T06:56:47.416Z,7.30
2019-01-30T06:59:20.684Z,6.83
2019-01-30T07:01:54.039Z,6.80
2019-01-30T07:04:27.466Z,6.72
2019-01-30T07:07:00.595Z,7.72
2019-01-30T07:09:33.963Z,7.33
2019-01-30T07:12:06.893Z,7.80
2019-01-30T07:14:40.600Z,7.90
2019-01-30T07:17:14.309Z,8.05
2019-01-30T07:19:47.784Z,8.10
2019-01-30T07:22:23.855Z,7.97
2019-01-30T07:24:57.367Z,7.90
2019-01-30T07:27:30.447Z,7.28
2019-01-30T07:30:06.530Z,8.00
2019-01-30T07:32:42.294Z,8.78
2019-01-30T07:35:17.504Z,6.92
2019-01-30T07:37:50.610Z,7.75
2019-01-30T07:40:25.193Z,6.87
2019-01-30T07:43:00.736Z,8.90
2019-01-30T07:45:34.266Z,8.53
2019-01-30T07:48:07.564Z,7.08
2019-01-30T07:50:41.144Z,8.10
2019-01-30T07:53:13.825Z,8.05
2019-01-30T07:55:47.642Z,9.68
2019-01-30T07:58:20.324Z,7.92
2019-01-30T08:00:53.842Z,7.55
2019-01-30T08:03:26.927Z,6.75
2019-01-30T08:06:00.395Z,6.22
2019-01-30T08:08:34.681Z,7.28
2019-01-30T08:11:07.424Z,7.20
2019-01-30T08:13:40.254Z,9.50
2019-01-30T08:16:13.559Z,6.15
2019-01-30T08:18:46.091Z,7.35
2019-01-30T08:21:21.901Z,8.13
2019-01-30T08:23:54.526Z,8.15
2019-01-30T08:26:27.982Z,8.00
2019-01-30T08:29:02.226Z,7.78
2019-01-30T08:31:35.686Z,7.45
2019-01-30T08:34:09.319Z,9.60
2019-01-30T08:36:42.394Z,7.70
2019-01-30T08:39:15.707Z,8.43
2019-01-30T08:41:48.686Z,8.43
2019-01-30T08:44:23.402Z,7.25
2019-01-30T08:46:56.916Z,7.12
2019-01-30T08:49:31.254Z,9.10
2019-01-30T08:52:04.435Z,7.20
2019-01-30T08:54:40.667Z,7.87
2019-01-30T08:57:14.153Z,8.08
2019-01-30T08:59:47.204Z,9.00
2019-01-30T09:02:21.111Z,8.70
2019-01-30T09:04:54.704Z,7.67
2019-01-30T09:07:27.332Z,8.30
2019-01-30T09:10:00.968Z,8.00
2019-01-30T09:12:34.380Z,7.92
2019-01-30T09:15:11.538Z,7.30
2019-01-30T09:17:44.129Z,8.25
2019-01-30T09:20:19.648Z,6.12
2019-01-30T09:22:53.502Z,7.58
2019-01-30T09:25:28.222Z,9.33
2019-01-30T09:28:01.872Z,7.12
2019-01-30T09:30:36.359Z,6.67
2019-01-30T09:33:10.670Z,8.50
2019-01-30T09:35:43.556Z,7.92
2019-01-30T09:38:16.613Z,9.70
2019-01-30T09:40:50.063Z,7.47
2019-01-30T09:43:27.401Z,7.58
2019-01-30T09:46:00.920Z,7.60
2019-01-30T09:48:37.019Z,7.33
2019-01-30T09:51:09.771Z,7.67
2019-01-30T09:53:42.768Z,6.80
2019-01-30T09:56:15.921Z,7.40
2019-01-30T09:58:48.650Z,7.33
2019-01-30T10:01:22.465Z,7.90
2019-01-30T10:03:56.243Z,7.83
2019-01-30T10:06:30.262Z,7.12
2019-01-30T10:09:06.974Z,8.00
2019-01-30T10:11:39.335Z,7.03
2019-01-30T10:14:12.753Z,8.25
2019-01-30T10:16:49.338Z,7.30
2019-01-30T10:19:22.820Z,8.08
2019-01-30T10:21:58.592Z,7.65
2019-01-30T10:24:32.534Z,8.10
2019-01-30T10:27:07.354Z,6.83
2019-01-30T10:29:41.599Z,6.45
2019-01-30T10:32:13.916Z,6.40
2019-01-30T10:34:46.818Z,7.20
2019-01-30T10:37:20.790Z,7.60
2019-01-30T10:39:55.641Z,6.90
2019-01-30T10:42:28.353Z,7.15
2019-01-30T10:45:01.877Z,7.58
2019-01-30T10:47:34.723Z,8.13
2019-01-30T10:50:10.170Z,7.05
2019-01-30T10:52:44.148Z,7.42
2019-01-30T10:55:19.693Z,7.85
2019-01-30T10:57:55.791Z,6.58
2019-01-30T11:00:35.297Z,7.50
2019-01-30T11:03:13.516Z,7.17
2019-01-30T11:05:52.636Z,7.53
2019-01-30T11:08:23.323Z,7.22
2019-01-30T11:11:08.083Z,8.75
2019-01-30T11:13:36.683Z,7.50
2019-01-30T11:16:20.875Z,7.35
2019-01-30T11:19:01.656Z,7.80
2019-01-30T11:21:33.566Z,7.25
2019-01-30T11:24:06.774Z,7.90
2019-01-30T11:26:43.611Z,7.70
2019-01-30T11:29:21.278Z,7.50
2019-01-30T11:32:00.989Z,7.12
2019-01-30T11:34:34.160Z,7.35
2019-01-30T11:37:09.530Z,7.17
2019-01-30T11:39:43.606Z,7.75
2019-01-30T11:42:21.431Z,6.95
2019-01-30T11:45:02.022Z,7.15
2019-01-30T11:47:32.801Z,7.20
2019-01-30T11:50:07.399Z,6.08
2019-01-30T11:52:41.819Z,6.83
2019-01-30T11:55:15.494Z,7.33
2019-01-30T11:57:51.301Z,7.12
2019-01-30T12:00:36.497Z,6.90
2019-01-30T12:03:11.747Z,6.15
2019-01-30T12:05:46.432Z,6.45
2019-01-30T12:08:20.180Z,7.28
2019-01-30T12:10:54.291Z,7.03
2019-01-30T12:13:28.008Z,7.28
2019-01-30T12:16:01.375Z,7.45
2019-01-30T12:18:34.789Z,8.15
2019-01-30T12:21:10.284Z,7.85
2019-01-30T12:23:42.834Z,7.35
2019-01-30T12:26:15.949Z,8.60
2019-01-30T12:28:48.541Z,8.50
2019-01-30T12:31:22.527Z,9.35
2019-01-30T12:34:03.541Z,8.45
2019-01-30T12:36:38.656Z,8.55
2019-01-30T12:39:12.597Z,9.08
2019-01-30T12:41:45.252Z,8.68
2019-01-30T12:44:18.161Z,8.25
2019-01-30T12:46:54.372Z,9.60
2019-01-30T12:49:28.204Z,9.48
2019-01-30T12:52:02.943Z,8.90
2019-01-30T12:54:36.114Z,8.68
2019-01-30T12:57:12.702Z,11.97
2019-01-30T12:59:45.624Z,9.90
2019-01-30T13:02:19.650Z,8.13
2019-01-30T13:04:52.289Z,10.03
2019-01-30T13:07:28.438Z,10.40
2019-01-30T13:10:24.795Z,9.73
2019-01-30T13:13:01.000Z,10.43
2019-01-30T13:18:34.870Z,9.75
2019-01-30T13:21:14.662Z,10.70
2019-01-30T13:23:51.116Z,10.82
2019-01-30T13:26:23.956Z,10.58
2019-01-30T13:28:59.308Z,9.35
2019-01-30T13:31:41.098Z,9.43
2019-01-30T13:34:25.316Z,9.33
2019-01-30T13:37:05.727Z,9.85
2019-01-30T13:39:47.670Z,10.23
2019-01-30T13:42:21.862Z,10.65
2019-01-30T13:44:55.329Z,9.88
2019-01-30T13:47:28.362Z,10.82
2019-01-30T13:50:08.459Z,10.60
2019-01-30T13:52:44.395Z,11.48
2019-01-30T13:55:18.534Z,11.53
2019-01-30T13:57:53.902Z,12.28
2019-01-30T14:00:28.782Z,11.20
2019-01-30T14:03:01.798Z,10.30
2019-01-30T14:05:36.413Z,10.50
2019-01-30T14:08:14.148Z,11.48
2019-01-30T14:10:47.047Z,11.05
2019-01-30T14:13:24.350Z,9.93
2019-01-30T14:16:03.483Z,10.58
2019-01-30T14:18:35.753Z,11.63
2019-01-30T14:21:12.591Z,9.55
2019-01-30T14:23:46.615Z,9.93
2019-01-30T14:26:23.013Z,10.50
2019-01-30T14:29:02.232Z,10.78
2019-01-30T14:31:35.111Z,11.30
2019-01-30T14:34:14.007Z,9.50
2019-01-30T14:36:50.196Z,10.75
2019-01-30T14:39:25.587Z,9.35
2019-01-30T14:42:01.738Z,8.95
2019-01-30T14:44:35.941Z,9.03
2019-01-30T14:47:10.472Z,10.98
2019-01-30T14:49:45.318Z,11.20
2019-01-30T14:52:21.700Z,9.85
2019-01-30T14:54:55.532Z,9.68
2019-01-30T14:57:35.189Z,10.82
2019-01-30T15:00:14.267Z,10.65
2019-01-30T15:02:51.844Z,8.93
2019-01-30T15:05:31.365Z,9.98
2019-01-30T15:08:05.036Z,9.25
2019-01-30T15:10:40.709Z,9.60
2019-01-30T15:13:14.493Z,9.68
2019-01-30T15:15:47.006Z,8.93
2019-01-30T15:18:21.814Z,8.58
2019-01-30T15:20:55.216Z,9.05
2019-01-30T15:23:29.002Z,9.08
2019-01-30T15:26:04.835Z,9.05
2019-01-30T15:28:44.317Z,9.03
2019-01-30T15:31:14.727Z,8.53
2019-01-30T15:33:51.070Z,8.48
2019-01-30T15:36:31.732Z,8.70
2019-01-30T15:39:09.153Z,7.97
2019-01-30T15:41:43.671Z,11.63
2019-01-30T15:44:21.916Z,9.60
2019-01-30T15:46:57.432Z,9.80
2019-01-30T15:49:33.788Z,10.72
2019-01-30T15:52:07.124Z,11.20
2019-01-30T15:54:40.426Z,12.50
2019-01-30T15:57:16.330Z,11.08
2019-01-30T15:59:52.689Z,11.78
2019-01-30T16:02:25.385Z,13.00
2019-01-30T16:05:03.006Z,12.20
2019-01-30T16:07:36.102Z,12.05
2019-01-30T16:10:13.465Z,11.70
2019-01-30T16:12:47.093Z,12.65
2019-01-30T16:15:25.188Z,12.50
2019-01-30T16:18:02.088Z,12.55
2019-01-30T16:20:38.292Z,12.18
2019-01-30T16:23:11.806Z,12.45
2019-01-30T16:25:45.467Z,12.65
2019-01-30T16:28:22.304Z,13.80
2019-01-30T16:30:56.225Z,13.08
2019-01-30T16:33:33.979Z,12.30
2019-01-30T16:36:12.467Z,12.75
2019-01-30T16:38:45.530Z,13.60
2019-01-30T16:41:21.661Z,13.98
2019-01-30T16:43:55.000Z,11.83
2019-01-30T16:46:33.470Z,12.78
2019-01-30T16:49:07.068Z,11.08
2019-01-30T16:51:45.165Z,12.33
2019-01-30T16:54:21.494Z,12.82
2019-01-30T16:56:55.165Z,12.33
2019-01-30T16:59:31.338Z,12.85
2019-01-30T17:02:06.182Z,12.40
2019-01-30T17:04:40.911Z,10.50
2019-01-30T17:07:14.333Z,10.90
2019-01-30T17:09:49.234Z,11.88
2019-01-30T17:12:24.190Z,10.90
2019-01-30T17:14:59.195Z,11.97
2019-01-30T17:17:33.322Z,12.30
2019-01-30T17:20:11.812Z,13.32
2019-01-30T17:22:45.319Z,12.15
2019-01-30T17:25:22.848Z,13.15
2019-01-30T17:27:57.144Z,11.75
2019-01-30T17:31:00.604Z,10.90
2019-01-30T17:33:36.718Z,12.03
2019-01-30T17:36:18.142Z,12.15
2019-01-30T17:38:55.170Z,12.37
2019-01-30T17:41:32.448Z,13.38
2019-01-30T17:44:06.520Z,12.43
2019-01-30T17:46:44.073Z,13.75
2019-01-30T17:49:23.414Z,14.75
2019-01-30T17:51:58.841Z,14.13
2019-01-30T17:54:36.264Z,14.75
2019-01-30T17:57:14.570Z,13.15
2019-01-30T17:59:49.908Z,14.30
2019-01-30T18:02:23.620Z,13.93
2019-01-30T18:05:00.179Z,13.72
2019-01-30T18:07:36.622Z,14.28
2019-01-30T18:10:12.178Z,13.05
2019-01-30T18:12:53.313Z,14.43
2019-01-30T18:15:30.020Z,13.75
2019-01-30T18:18:05.583Z,14.07
2019-01-30T18:21:04.639Z,14.28
2019-01-30T18:23:45.062Z,14.20
2019-01-30T18:26:19.804Z,14.00
2019-01-30T18:28:58.922Z,15.58
2019-01-30T18:31:35.031Z,13.83
2019-01-30T18:34:13.232Z,14.73
2019-01-30T18:36:46.539Z,13.48
2019-01-30T18:39:24.565Z,13.40
2019-01-30T18:42:02.604Z,13.50
2019-01-30T18:44:38.850Z,14.23
2019-01-30T18:47:13.158Z,13.08
2019-01-30T18:49:47.262Z,13.93
2019-01-30T18:52:21.465Z,13.45
2019-01-30T18:54:56.404Z,13.10
2019-01-30T18:57:34.055Z,15.35
2019-01-30T19:00:13.271Z,15.13
2019-01-30T19:02:56.247Z,15.28
2019-01-30T19:05:31.508Z,15.48
2019-01-30T19:08:07.921Z,14.85
2019-01-30T19:10:43.901Z,15.72
2019-01-30T19:13:19.003Z,16.15
2019-01-30T19:15:53.923Z,15.40
2019-01-30T19:18:36.037Z,16.27
2019-01-30T19:21:18.474Z,14.70
2019-01-30T19:24:13.037Z,17.32
2019-01-30T19:26:47.735Z,17.60
2019-01-30T19:29:23.896Z,20.37
2019-01-30T19:31:58.697Z,20.72
2019-01-30T19:34:31.489Z,18.98
2019-01-30T19:37:04.310Z,21.35
2019-01-30T19:39:41.125Z,21.12
2019-01-30T19:42:18.370Z,21.80
2019-01-30T19:44:53.110Z,19.48
2019-01-30T19:47:28.923Z,21.23
2019-01-30T19:50:05.665Z,20.70
2019-01-30T19:52:46.711Z,21.82
2019-01-30T19:55:22.180Z,23.32
2019-01-30T19:57:57.757Z,23.25
2019-01-30T20:00:42.376Z,23.85
2019-01-30T20:03:25.717Z,23.12
2019-01-30T20:06:01.206Z,23.80
2019-01-30T20:08:35.460Z,26.95
2019-01-30T20:11:08.679Z,24.95
2019-01-30T20:13:44.114Z,25.57
2019-01-30T20:16:17.143Z,27.02
2019-01-30T20:18:59.508Z,28.98
2019-01-30T20:21:35.159Z,26.70
2019-01-30T20:24:16.270Z,25.65
2019-01-30T20:26:51.890Z,26.82
2019-01-30T20:29:25.562Z,29.82
2019-01-30T20:32:06.174Z,28.67
2019-01-30T20:34:41.873Z,27.20
2019-01-30T20:37:26.414Z,27.35
2019-01-30T20:40:01.079Z,30.48
2019-01-30T20:42:36.550Z,30.30
2019-01-30T20:45:12.797Z,30.30
2019-01-30T20:47:46.546Z,31.37
2019-01-30T20:50:53.274Z,29.45
2019-01-30T20:53:27.081Z,29.02
2019-01-30T20:56:12.313Z,27.22
2019-01-30T20:58:46.983Z,34.00
2019-01-30T21:01:20.412Z,30.05
2019-01-30T21:03:59.631Z,31.37
2019-01-30T21:06:35.928Z,27.85
2019-01-30T21:09:12.782Z,29.23
2019-01-30T21:11:50.708Z,31.25
2019-01-30T21:14:24.744Z,29.63
2019-01-30T21:17:01.571Z,29.63
2019-01-30T21:19:34.925Z,28.35
2019-01-30T21:22:12.556Z,26.23
2019-01-30T21:24:45.996Z,29.45
2019-01-30T21:27:24.530Z,30.50
2019-01-30T21:29:58.994Z,27.70
2019-01-30T21:32:33.810Z,27.70
2019-01-30T21:35:14.810Z,28.83
2019-01-30T21:37:52.994Z,28.85
2019-01-30T21:40:26.690Z,27.07
2019-01-30T21:43:03.625Z,25.88
2019-01-30T21:45:40.779Z,28.15
2019-01-30T21:48:16.307Z,28.80
2019-01-30T21:50:52.658Z,27.67
2019-01-30T21:53:25.760Z,29.25
2019-01-30T21:55:59.061Z,27.62
2019-01-30T21:58:34.727Z,26.20
2019-01-30T22:01:12.746Z,27.67
2019-01-30T22:03:43.226Z,26.48
2019-01-30T22:06:18.373Z,27.07
2019-01-30T22:08:55.105Z,29.35
2019-01-30T22:11:27.692Z,26.90
2019-01-30T22:14:01.338Z,28.52
2019-01-30T22:16:34.828Z,28.35
2019-01-30T22:19:07.983Z,28.77
2019-01-30T22:21:45.356Z,32.17
2019-01-30T22:24:20.611Z,31.27
2019-01-30T22:26:53.955Z,31.17
2019-01-30T22:29:26.734Z,31.85
2019-01-30T22:32:04.016Z,29.57
2019-01-30T22:34:43.723Z,32.17
2019-01-30T22:37:22.701Z,30.75
2019-01-30T22:39:56.604Z,32.65
2019-01-30T22:42:31.610Z,32.60
2019-01-30T22:45:10.070Z,32.58
2019-01-30T22:47:44.122Z,31.60
2019-01-30T22:50:17.992Z,31.75
2019-01-30T22:52:53.549Z,32.28
2019-01-30T22:55:27.672Z,36.25
2019-01-30T22:58:00.463Z,37.40
2019-01-30T23:00:52.540Z,35.65
2019-01-30T23:03:53.539Z,34.20
2019-01-30T23:07:22.397Z,34.88
2019-01-30T23:10:34.079Z,36.10
2019-01-30T23:13:33.621Z,36.63
2019-01-30T23:16:40.333Z,36.53
2019-01-30T23:19:32.695Z,37.13
2019-01-30T23:22:17.890Z,38.20
2019-01-30T23:25:20.485Z,38.95
2019-01-30T23:28:25.219Z,39.03
2019-01-30T23:31:32.807Z,40.50
2019-01-30T23:35:01.757Z,40.28
2019-01-30T23:37:54.611Z,38.92
2019-01-30T23:41:06.030Z,40.08
2019-01-30T23:44:02.186Z,38.28
2019-01-30T23:47:21.710Z,38.08
2019-01-30T23:50:32.106Z,37.05
2019-01-30T23:53:58.445Z,36.88
2019-01-30T23:56:47.616Z,37.63
